Time;durP1;ratioP1;P1;durP2;ratioP2;P2;SDS_P1;SDS_P2;PMS_P1;PMS_P2;Temp;Humidity;BMP_temperature;BMP_pressure;BME280_temperature;BME280_humidity;BME280_pressure;Samples;Min_cycle;Max_cycle;Signal;HPM_P1;HPM_P2
2023/11/19 00:02:04;;;;;;;0.95;0.50;;;;;;;;;;5013624;28;20036;-79
2023/11/19 00:04:30;;;;;;;0.80;0.50;;;;;;;;;;5040224;28;20166;-80
2023/11/19 00:06:57;;;;;;;1.23;0.60;;;;;;;;;;5033910;28;21114;-81
2023/11/19 00:09:22;;;;;;;0.85;0.40;;;;;;;;;;5032463;28;20042;-80
2023/11/19 00:11:48;;;;;;;0.70;0.50;;;;;;;;;;5051332;28;20036;-81
2023/11/19 00:14:13;;;;;;;1.48;0.60;;;;;;;;;;5049816;28;20107;-80
2023/11/19 00:16:38;;;;;;;0.70;0.35;;;;;;;;;;5050366;28;20094;-81
2023/11/19 00:19:04;;;;;;;0.90;0.40;;;;;;;;;;5035499;28;20473;-81
2023/11/19 00:21:29;;;;;;;1.13;0.67;;;;;;;;;;5044469;28;20037;-80
2023/11/19 00:23:54;;;;;;;1.00;0.60;;;;;;;;;;5056492;28;20284;-80
2023/11/19 00:26:20;;;;;;;0.80;0.50;;;;;;;;;;5063640;28;20060;-80
2023/11/19 00:28:47;;;;;;;0.63;0.37;;;;;;;;;;5070289;28;20113;-81
2023/11/19 00:31:12;;;;;;;1.02;0.50;;;;;;;;;;5061134;28;20283;-80
2023/11/19 00:33:38;;;;;;;0.77;0.50;;;;;;;;;;5054256;28;20140;-81
2023/11/19 00:36:03;;;;;;;2.40;0.40;;;;;;;;;;5068606;28;20064;-81
2023/11/19 00:38:28;;;;;;;1.60;0.65;;;;;;;;;;5025050;28;20036;-80
2023/11/19 00:40:54;;;;;;;1.20;0.50;;;;;;;;;;5059369;28;20048;-80
2023/11/19 00:43:22;;;;;;;0.77;0.30;;;;;;;;;;5060092;28;20310;-80
2023/11/19 00:45:50;;;;;;;0.93;0.50;;;;;;;;;;5052004;28;20072;-80
2023/11/19 00:48:15;;;;;;;1.30;0.60;;;;;;;;;;5036348;28;20076;-80
2023/11/19 00:50:44;;;;;;;1.20;0.70;;;;;;;;;;5046156;28;20033;-81
2023/11/19 00:53:09;;;;;;;1.00;0.50;;;;;;;;;;5030816;28;20033;-80
2023/11/19 00:55:34;;;;;;;1.10;0.77;;;;;;;;;;5035844;28;20049;-80
2023/11/19 00:57:59;;;;;;;0.77;0.40;;;;;;;;;;5030092;28;20371;-80
2023/11/19 01:05:32;;;;;;;0.70;0.45;;;;;;;;;;5039883;23;20128;-56
2023/11/19 01:07:57;;;;;;;0.90;0.40;;;;;;;;;;5047591;23;20475;-56
2023/11/19 01:10:22;;;;;;;0.70;0.50;;;;;;;;;;5044902;28;20525;-56
2023/11/19 01:12:47;;;;;;;0.95;0.40;;;;;;;;;;5044199;28;20041;-55
2023/11/19 01:15:13;;;;;;;0.80;0.50;;;;;;;;;;5043059;28;20049;-55
2023/11/19 01:17:38;;;;;;;0.68;0.40;;;;;;;;;;5045178;28;20842;-55
2023/11/19 01:20:06;;;;;;;1.20;0.57;;;;;;;;;;5045469;28;20033;-56
2023/11/19 01:22:31;;;;;;;1.05;0.65;;;;;;;;;;5027525;28;20094;-55
2023/11/19 01:24:58;;;;;;;1.00;0.50;;;;;;;;;;5044802;28;20045;-55
2023/11/19 01:27:23;;;;;;;0.73;0.43;;;;;;;;;;5043657;28;20064;-55
2023/11/19 01:29:48;;;;;;;0.95;0.50;;;;;;;;;;5045739;28;20033;-56
2023/11/19 01:32:13;;;;;;;1.00;0.43;;;;;;;;;;5041180;28;20037;-57
2023/11/19 01:34:39;;;;;;;1.02;0.50;;;;;;;;;;5044073;28;20295;-56
2023/11/19 01:37:04;;;;;;;0.85;0.50;;;;;;;;;;5045619;28;20025;-57
2023/11/19 01:39:29;;;;;;;0.70;0.47;;;;;;;;;;5026382;28;20033;-56
2023/11/19 01:41:55;;;;;;;0.88;0.50;;;;;;;;;;5045383;28;20110;-57
2023/11/19 01:44:20;;;;;;;1.40;0.60;;;;;;;;;;5045595;28;20033;-56
2023/11/19 01:46:47;;;;;;;0.80;0.50;;;;;;;;;;5044483;28;20040;-56
2023/11/19 01:49:14;;;;;;;0.90;0.50;;;;;;;;;;5045354;28;20284;-56
2023/11/19 01:51:40;;;;;;;1.25;0.50;;;;;;;;;;5025981;28;20037;-57
2023/11/19 01:54:05;;;;;;;1.02;0.60;;;;;;;;;;5044972;28;20033;-59
2023/11/19 01:56:30;;;;;;;1.20;0.57;;;;;;;;;;5044908;28;20049;-59
2023/11/19 01:58:55;;;;;;;0.68;0.40;;;;;;;;;;5027438;28;20477;-56
2023/11/19 02:01:21;;;;;;;0.60;0.40;;;;;;;;;;5027146;28;20044;-56
2023/11/19 02:03:47;;;;;;;0.90;0.50;;;;;;;;;;5027587;28;20048;-55
2023/11/19 02:06:12;;;;;;;0.80;0.45;;;;;;;;;;5044954;28;20040;-55
2023/11/19 02:08:38;;;;;;;1.05;0.50;;;;;;;;;;5026829;28;20073;-56
2023/11/19 02:11:06;;;;;;;1.30;0.70;;;;;;;;;;5010291;28;20450;-56
2023/11/19 02:13:31;;;;;;;0.80;0.55;;;;;;;;;;5044991;28;20125;-56
2023/11/19 02:15:57;;;;;;;1.35;0.60;;;;;;;;;;5043810;28;20496;-56
2023/11/19 02:18:22;;;;;;;0.93;0.43;;;;;;;;;;5041219;28;20118;-56
2023/11/19 02:20:50;;;;;;;1.13;0.60;;;;;;;;;;5043789;28;20041;-56
2023/11/19 02:23:16;;;;;;;0.68;0.52;;;;;;;;;;5025986;28;20063;-56
2023/11/19 02:25:41;;;;;;;0.75;0.40;;;;;;;;;;5043504;28;20557;-56
2023/11/19 02:28:06;;;;;;;1.20;0.63;;;;;;;;;;5026843;28;20132;-57
2023/11/19 02:30:32;;;;;;;1.40;0.50;;;;;;;;;;5043760;28;20303;-56
2023/11/19 02:33:05;;;;;;;1.00;0.52;;;;;;;;;;5043077;28;20287;-57
2023/11/19 02:35:31;;;;;;;0.90;0.55;;;;;;;;;;5036352;28;20053;-56
2023/11/19 02:37:56;;;;;;;1.08;0.50;;;;;;;;;;5044208;28;20588;-56
2023/11/19 02:40:23;;;;;;;0.57;0.47;;;;;;;;;;5043233;28;20033;-55
2023/11/19 02:42:49;;;;;;;0.80;0.55;;;;;;;;;;5026560;28;20025;-56
2023/11/19 02:45:14;;;;;;;0.90;0.60;;;;;;;;;;5043982;28;20048;-56
2023/11/19 02:47:42;;;;;;;1.10;0.50;;;;;;;;;;5043628;28;20051;-56
2023/11/19 02:50:13;;;;;;;1.00;0.60;;;;;;;;;;5042947;28;20267;-56
2023/11/19 02:52:39;;;;;;;0.80;0.50;;;;;;;;;;5044089;28;20025;-56
2023/11/19 02:55:09;;;;;;;0.90;0.52;;;;;;;;;;5043788;28;20036;-56
2023/11/19 02:57:34;;;;;;;0.50;0.40;;;;;;;;;;5043520;28;20494;-55
2023/11/19 02:59:59;;;;;;;1.05;0.60;;;;;;;;;;5044477;28;20090;-55
2023/11/19 03:02:33;;;;;;;0.70;0.43;;;;;;;;;;5044521;28;20021;-55
2023/11/19 03:04:59;;;;;;;0.90;0.50;;;;;;;;;;5043710;28;20049;-59
2023/11/19 03:07:25;;;;;;;0.70;0.50;;;;;;;;;;5044252;28;20110;-56
2023/11/19 03:09:50;;;;;;;1.38;0.60;;;;;;;;;;5043393;28;20459;-54
2023/11/19 03:12:15;;;;;;;0.80;0.60;;;;;;;;;;5044136;28;20425;-55
2023/11/19 03:14:40;;;;;;;1.20;0.70;;;;;;;;;;5044690;28;20271;-54
2023/11/19 03:17:06;;;;;;;1.03;0.60;;;;;;;;;;5043457;28;20275;-57
2023/11/19 03:19:31;;;;;;;1.05;0.70;;;;;;;;;;5042763;28;20786;-56
2023/11/19 03:21:56;;;;;;;1.30;0.68;;;;;;;;;;5044489;28;20041;-56
2023/11/19 03:24:22;;;;;;;0.70;0.50;;;;;;;;;;5045240;28;20422;-56
2023/11/19 03:26:50;;;;;;;1.05;0.68;;;;;;;;;;5044185;28;20110;-56
2023/11/19 03:29:15;;;;;;;0.75;0.50;;;;;;;;;;5043849;28;20060;-56
2023/11/19 03:31:44;;;;;;;1.00;0.65;;;;;;;;;;5043820;28;20128;-56
2023/11/19 03:34:09;;;;;;;0.90;0.60;;;;;;;;;;5044281;28;20068;-56
2023/11/19 03:36:35;;;;;;;1.25;0.68;;;;;;;;;;5043070;28;20161;-56
2023/11/19 03:39:00;;;;;;;0.70;0.47;;;;;;;;;;5038317;28;20517;-55
2023/11/19 03:41:25;;;;;;;0.57;0.47;;;;;;;;;;5040833;28;20037;-55
2023/11/19 03:43:51;;;;;;;1.10;0.50;;;;;;;;;;5043265;28;20510;-55
2023/11/19 03:46:19;;;;;;;0.90;0.60;;;;;;;;;;5043274;28;20098;-56
2023/11/19 03:48:46;;;;;;;0.75;0.47;;;;;;;;;;5042056;28;20131;-58
2023/11/19 03:51:15;;;;;;;0.88;0.60;;;;;;;;;;5044619;28;20043;-57
2023/11/19 03:53:40;;;;;;;1.15;0.60;;;;;;;;;;5047738;28;20033;-57
2023/11/19 03:56:05;;;;;;;0.80;0.50;;;;;;;;;;5047568;28;20048;-56
2023/11/19 03:58:31;;;;;;;0.68;0.50;;;;;;;;;;5047041;28;20124;-55
2023/11/19 04:00:56;;;;;;;0.95;0.60;;;;;;;;;;5046880;28;20451;-56
2023/11/19 04:03:22;;;;;;;1.00;0.60;;;;;;;;;;5046876;28;20029;-56
2023/11/19 04:05:47;;;;;;;0.80;0.55;;;;;;;;;;5047015;28;20036;-56
2023/11/19 04:08:12;;;;;;;0.60;0.47;;;;;;;;;;5047233;28;20144;-56
2023/11/19 04:10:37;;;;;;;0.90;0.50;;;;;;;;;;5045158;28;20033;-55
2023/11/19 04:13:03;;;;;;;0.93;0.50;;;;;;;;;;5046358;28;20056;-56
2023/11/19 04:15:29;;;;;;;0.80;0.50;;;;;;;;;;5023771;28;20057;-56
2023/11/19 04:17:54;;;;;;;0.77;0.45;;;;;;;;;;5046938;28;20689;-56
2023/11/19 04:20:19;;;;;;;1.20;0.60;;;;;;;;;;5047033;28;20078;-56
2023/11/19 04:22:44;;;;;;;0.80;0.60;;;;;;;;;;5046940;28;20290;-55
2023/11/19 04:25:10;;;;;;;0.70;0.47;;;;;;;;;;5046913;28;20360;-56
2023/11/19 04:27:36;;;;;;;0.70;0.50;;;;;;;;;;5028320;28;20029;-56
2023/11/19 04:30:03;;;;;;;1.00;0.60;;;;;;;;;;5046565;28;20037;-55
2023/11/19 04:32:28;;;;;;;1.17;0.60;;;;;;;;;;5046170;28;20081;-54
2023/11/19 04:34:54;;;;;;;0.82;0.60;;;;;;;;;;5028714;28;20057;-56
2023/11/19 04:37:19;;;;;;;1.07;0.57;;;;;;;;;;5046004;28;20506;-55
2023/11/19 04:39:46;;;;;;;0.85;0.55;;;;;;;;;;5042912;28;20349;-56
2023/11/19 04:42:11;;;;;;;1.52;0.60;;;;;;;;;;5046076;28;20495;-55
2023/11/19 04:44:36;;;;;;;0.60;0.40;;;;;;;;;;5044568;28;20033;-55
2023/11/19 04:47:01;;;;;;;0.93;0.50;;;;;;;;;;5045487;28;20119;-56
2023/11/19 04:49:27;;;;;;;0.82;0.60;;;;;;;;;;5045996;28;20426;-56
2023/11/19 04:51:53;;;;;;;1.10;0.80;;;;;;;;;;5045175;28;20041;-56
2023/11/19 04:54:18;;;;;;;1.13;0.50;;;;;;;;;;5028751;28;20276;-56
2023/11/19 04:56:47;;;;;;;0.52;0.35;;;;;;;;;;5046205;28;20576;-57
2023/11/19 04:59:12;;;;;;;0.90;0.60;;;;;;;;;;5045835;28;20032;-56
2023/11/19 05:01:38;;;;;;;0.80;0.50;;;;;;;;;;5045131;28;20035;-56
2023/11/19 05:04:03;;;;;;;0.60;0.50;;;;;;;;;;5046760;28;20116;-56
2023/11/19 05:06:29;;;;;;;0.90;0.50;;;;;;;;;;5046051;28;20564;-55
2023/11/19 05:08:54;;;;;;;1.15;0.47;;;;;;;;;;5045743;28;20393;-56
2023/11/19 05:11:20;;;;;;;0.52;0.40;;;;;;;;;;5045411;28;20068;-56
2023/11/19 05:13:45;;;;;;;0.70;0.47;;;;;;;;;;5045883;28;20041;-55
2023/11/19 05:16:11;;;;;;;0.77;0.50;;;;;;;;;;5045271;28;20049;-59
2023/11/19 05:18:36;;;;;;;1.60;0.60;;;;;;;;;;5044956;28;20044;-57
2023/11/19 05:21:01;;;;;;;1.60;0.60;;;;;;;;;;5039156;28;20463;-56
2023/11/19 05:23:26;;;;;;;1.13;0.60;;;;;;;;;;5031831;28;20135;-55
2023/11/19 05:25:52;;;;;;;1.00;0.50;;;;;;;;;;5031600;28;20563;-55
2023/11/19 05:28:17;;;;;;;1.10;0.57;;;;;;;;;;5033164;28;21489;-55
2023/11/19 05:30:42;;;;;;;0.88;0.43;;;;;;;;;;5032599;28;20068;-55
2023/11/19 05:33:08;;;;;;;0.70;0.50;;;;;;;;;;5035067;28;20068;-55
2023/11/19 05:35:34;;;;;;;0.93;0.40;;;;;;;;;;5034120;28;20537;-55
2023/11/19 05:37:59;;;;;;;2.30;0.57;;;;;;;;;;5032133;28;20041;-54
2023/11/19 05:40:24;;;;;;;0.73;0.50;;;;;;;;;;5033322;28;20029;-55
2023/11/19 05:42:50;;;;;;;2.05;0.60;;;;;;;;;;5030949;28;20323;-55
2023/11/19 05:45:15;;;;;;;1.10;0.57;;;;;;;;;;5030378;28;20125;-55
2023/11/19 05:47:41;;;;;;;1.00;0.50;;;;;;;;;;5037284;28;20832;-54
2023/11/19 05:50:06;;;;;;;2.42;0.80;;;;;;;;;;5031769;28;20118;-56
2023/11/19 05:52:33;;;;;;;1.05;0.45;;;;;;;;;;5030547;28;20034;-55
2023/11/19 05:55:02;;;;;;;0.73;0.52;;;;;;;;;;5030860;28;20751;-55
2023/11/19 05:57:29;;;;;;;1.75;0.57;;;;;;;;;;5030255;28;20044;-54
2023/11/19 05:59:54;;;;;;;0.60;0.40;;;;;;;;;;5031382;28;20112;-55
2023/11/19 06:02:19;;;;;;;0.70;0.50;;;;;;;;;;5032942;28;20037;-55
2023/11/19 06:04:47;;;;;;;0.82;0.55;;;;;;;;;;5032685;28;20034;-55
2023/11/19 06:07:13;;;;;;;1.27;0.70;;;;;;;;;;5033189;28;20542;-57
2023/11/19 06:09:38;;;;;;;1.48;0.50;;;;;;;;;;5030789;28;20037;-54
2023/11/19 06:12:06;;;;;;;0.80;0.40;;;;;;;;;;5030138;28;20135;-54
2023/11/19 06:14:31;;;;;;;0.85;0.40;;;;;;;;;;5030771;28;20128;-56
2023/11/19 06:16:56;;;;;;;1.40;0.53;;;;;;;;;;5033947;28;20495;-56
2023/11/19 06:19:24;;;;;;;0.70;0.57;;;;;;;;;;5032693;28;20299;-55
2023/11/19 06:21:49;;;;;;;1.48;0.60;;;;;;;;;;5031422;28;20353;-54
2023/11/19 06:24:15;;;;;;;3.33;0.60;;;;;;;;;;5032095;28;20152;-55
2023/11/19 06:26:40;;;;;;;0.98;0.60;;;;;;;;;;5031813;28;20310;-55
2023/11/19 06:29:05;;;;;;;0.65;0.40;;;;;;;;;;5031579;28;20037;-56
2023/11/19 06:31:31;;;;;;;1.05;0.50;;;;;;;;;;5033080;28;20073;-55
2023/11/19 06:33:56;;;;;;;0.88;0.63;;;;;;;;;;5030323;28;20045;-55
2023/11/19 06:36:21;;;;;;;1.00;0.50;;;;;;;;;;5030752;28;20071;-55
2023/11/19 06:38:47;;;;;;;0.70;0.50;;;;;;;;;;5030592;28;20473;-55
2023/11/19 06:41:12;;;;;;;0.77;0.50;;;;;;;;;;5029648;28;20288;-57
2023/11/19 06:43:37;;;;;;;0.90;0.60;;;;;;;;;;5029855;28;20379;-55
2023/11/19 06:46:05;;;;;;;2.10;0.57;;;;;;;;;;5030425;28;20506;-56
2023/11/19 06:48:31;;;;;;;0.80;0.45;;;;;;;;;;5045346;28;20063;-54
2023/11/19 06:50:57;;;;;;;0.90;0.43;;;;;;;;;;5031392;28;20029;-55
2023/11/19 06:53:22;;;;;;;1.63;0.50;;;;;;;;;;5030234;28;20106;-55
2023/11/19 06:55:47;;;;;;;1.07;0.50;;;;;;;;;;5030257;28;20447;-55
2023/11/19 06:58:13;;;;;;;0.85;0.50;;;;;;;;;;5009869;28;20299;-56
2023/11/19 07:00:38;;;;;;;1.20;0.50;;;;;;;;;;5031397;28;20387;-56
2023/11/19 07:03:04;;;;;;;0.90;0.50;;;;;;;;;;5029497;28;20361;-55
2023/11/19 07:05:30;;;;;;;1.08;0.55;;;;;;;;;;5029032;28;20041;-55
2023/11/19 07:07:55;;;;;;;0.70;0.40;;;;;;;;;;5027702;28;20033;-55
2023/11/19 07:10:20;;;;;;;0.90;0.60;;;;;;;;;;5031956;28;20037;-55
2023/11/19 07:12:46;;;;;;;0.57;0.40;;;;;;;;;;5031386;28;20548;-55
2023/11/19 07:15:12;;;;;;;0.80;0.40;;;;;;;;;;5027305;28;20049;-55
2023/11/19 07:17:39;;;;;;;1.10;0.50;;;;;;;;;;5012548;28;20415;-57
2023/11/19 07:20:05;;;;;;;0.70;0.50;;;;;;;;;;5029649;28;20114;-54
2023/11/19 07:22:31;;;;;;;0.80;0.45;;;;;;;;;;5029161;28;20506;-54
2023/11/19 07:24:56;;;;;;;1.08;0.50;;;;;;;;;;5029551;28;20041;-54
2023/11/19 07:27:22;;;;;;;1.10;0.50;;;;;;;;;;5029861;28;20462;-56
2023/11/19 07:29:47;;;;;;;0.73;0.40;;;;;;;;;;5029727;28;20205;-55
2023/11/19 07:32:15;;;;;;;1.80;0.47;;;;;;;;;;5029895;28;20438;-54
2023/11/19 07:34:41;;;;;;;0.98;0.40;;;;;;;;;;5030373;28;20037;-53
2023/11/19 07:37:07;;;;;;;0.90;0.60;;;;;;;;;;5030465;28;20040;-54
2023/11/19 07:39:32;;;;;;;1.65;0.70;;;;;;;;;;5029947;28;20087;-55
2023/11/19 07:41:58;;;;;;;1.05;0.45;;;;;;;;;;5043846;28;20031;-53
2023/11/19 07:44:23;;;;;;;1.17;0.50;;;;;;;;;;5030370;28;20127;-57
2023/11/19 07:46:48;;;;;;;1.10;0.43;;;;;;;;;;5029132;28;20460;-55
2023/11/19 07:49:13;;;;;;;1.15;0.60;;;;;;;;;;5028256;28;20033;-55
2023/11/19 07:51:39;;;;;;;1.15;0.50;;;;;;;;;;5029193;28;20036;-54
2023/11/19 07:54:04;;;;;;;1.98;0.60;;;;;;;;;;5044545;28;20499;-56
2023/11/19 07:56:29;;;;;;;1.20;0.68;;;;;;;;;;5029877;28;20087;-56
2023/11/19 07:58:55;;;;;;;2.27;0.70;;;;;;;;;;5030565;28;20495;-55
2023/11/19 08:01:20;;;;;;;1.52;0.55;;;;;;;;;;5043026;28;20303;-55
2023/11/19 08:03:45;;;;;;;1.40;0.70;;;;;;;;;;5026684;28;20047;-55
2023/11/19 08:06:11;;;;;;;2.08;0.60;;;;;;;;;;5027720;28;20685;-55
2023/11/19 08:08:37;;;;;;;3.25;0.70;;;;;;;;;;5008377;28;20033;-54
2023/11/19 08:11:05;;;;;;;2.67;0.70;;;;;;;;;;5024983;28;20403;-56
2023/11/19 08:13:30;;;;;;;1.27;0.60;;;;;;;;;;5027417;28;20087;-55
2023/11/19 08:15:56;;;;;;;1.25;0.65;;;;;;;;;;5027790;28;20052;-55
2023/11/19 08:18:22;;;;;;;2.95;0.73;;;;;;;;;;5026527;28;20048;-55
2023/11/19 08:20:52;;;;;;;2.17;0.68;;;;;;;;;;5028641;28;20087;-54
2023/11/19 08:23:18;;;;;;;1.15;0.52;;;;;;;;;;5028299;28;20065;-54
2023/11/19 08:25:44;;;;;;;1.65;0.60;;;;;;;;;;5030355;28;20131;-56
2023/11/19 08:28:09;;;;;;;2.35;0.90;;;;;;;;;;5028791;28;20045;-54
2023/11/19 08:30:34;;;;;;;1.73;0.70;;;;;;;;;;5030957;28;20046;-56
2023/11/19 08:33:02;;;;;;;2.70;0.70;;;;;;;;;;5043428;28;20041;-55
2023/11/19 08:35:28;;;;;;;1.70;0.75;;;;;;;;;;5029591;28;20073;-55
2023/11/19 08:37:54;;;;;;;12.73;1.88;;;;;;;;;;5032767;28;20056;-55
2023/11/19 08:40:19;;;;;;;6.40;0.95;;;;;;;;;;5032380;28;20033;-54
2023/11/19 08:42:45;;;;;;;6.65;1.00;;;;;;;;;;5031909;28;20045;-54
2023/11/19 08:45:10;;;;;;;4.72;1.15;;;;;;;;;;5032259;28;21190;-56
2023/11/19 08:47:36;;;;;;;7.30;1.10;;;;;;;;;;5034671;28;20082;-54
2023/11/19 08:50:01;;;;;;;5.80;0.85;;;;;;;;;;5033617;28;20388;-58
2023/11/19 08:52:27;;;;;;;3.25;0.90;;;;;;;;;;5032763;28;20428;-54
2023/11/19 08:54:52;;;;;;;2.00;0.70;;;;;;;;;;5033476;28;20044;-56
2023/11/19 08:57:17;;;;;;;3.87;0.90;;;;;;;;;;5031844;28;20325;-55
2023/11/19 08:59:43;;;;;;;5.37;0.97;;;;;;;;;;5034739;28;20781;-56
2023/11/19 09:02:09;;;;;;;4.47;1.00;;;;;;;;;;5037614;28;20360;-55
2023/11/19 09:04:34;;;;;;;3.88;0.85;;;;;;;;;;5039874;28;20025;-57
2023/11/19 09:06:59;;;;;;;3.83;0.77;;;;;;;;;;5035628;28;20459;-57
2023/11/19 09:09:25;;;;;;;4.00;1.10;;;;;;;;;;5034155;28;20026;-57
2023/11/19 09:11:50;;;;;;;4.60;0.85;;;;;;;;;;5033617;28;20945;-55
2023/11/19 09:14:15;;;;;;;3.07;0.90;;;;;;;;;;5034086;28;20071;-56
2023/11/19 09:16:41;;;;;;;3.17;0.88;;;;;;;;;;5021290;28;20803;-58
2023/11/19 09:19:06;;;;;;;5.57;1.25;;;;;;;;;;5033490;28;20021;-57
2023/11/19 09:21:32;;;;;;;3.90;0.80;;;;;;;;;;5032864;28;20025;-56
2023/11/19 09:23:57;;;;;;;2.78;1.25;;;;;;;;;;5033254;28;20366;-57
2023/11/19 09:26:22;;;;;;;2.43;0.87;;;;;;;;;;5031993;28;20095;-58
2023/11/19 09:28:48;;;;;;;1.83;0.85;;;;;;;;;;5031819;28;20772;-59
2023/11/19 09:31:14;;;;;;;2.92;0.80;;;;;;;;;;5033121;28;20017;-58
2023/11/19 09:33:39;;;;;;;2.95;0.95;;;;;;;;;;5014163;28;20023;-57
2023/11/19 09:36:05;;;;;;;2.47;0.80;;;;;;;;;;5014096;28;20090;-57
2023/11/19 09:38:30;;;;;;;1.75;0.98;;;;;;;;;;5033973;28;20391;-56
2023/11/19 09:40:57;;;;;;;2.00;0.90;;;;;;;;;;5048044;28;20024;-57
2023/11/19 09:43:22;;;;;;;3.53;0.90;;;;;;;;;;5031779;28;20120;-57
2023/11/19 09:45:49;;;;;;;2.17;0.77;;;;;;;;;;5015342;28;20489;-57
2023/11/19 09:48:18;;;;;;;2.53;1.20;;;;;;;;;;5011285;28;20853;-57
2023/11/19 09:50:46;;;;;;;2.40;0.90;;;;;;;;;;5031022;28;20126;-57
2023/11/19 09:53:12;;;;;;;2.55;0.80;;;;;;;;;;5032368;28;20025;-57
2023/11/19 09:55:37;;;;;;;3.15;0.90;;;;;;;;;;5032491;28;20049;-57
2023/11/19 09:58:03;;;;;;;2.85;0.82;;;;;;;;;;5012544;28;20043;-57
2023/11/19 10:00:28;;;;;;;2.45;0.80;;;;;;;;;;5032209;28;20679;-58
2023/11/19 10:02:54;;;;;;;2.60;0.80;;;;;;;;;;5030445;28;20080;-58
2023/11/19 10:05:20;;;;;;;3.85;0.90;;;;;;;;;;5030778;28;20041;-56
2023/11/19 10:07:46;;;;;;;2.15;0.88;;;;;;;;;;5031733;28;20041;-56
2023/11/19 10:10:15;;;;;;;2.47;0.90;;;;;;;;;;5028918;28;20045;-57
2023/11/19 10:12:40;;;;;;;1.90;1.13;;;;;;;;;;5028283;28;20036;-58
2023/11/19 10:15:07;;;;;;;2.65;0.85;;;;;;;;;;5030072;28;20049;-57
2023/11/19 10:17:35;;;;;;;4.57;1.10;;;;;;;;;;5029110;28;20029;-58
2023/11/19 10:20:01;;;;;;;1.73;1.00;;;;;;;;;;5032401;28;20555;-56
2023/11/19 10:22:27;;;;;;;3.33;1.10;;;;;;;;;;5011397;28;20036;-57
2023/11/19 10:24:52;;;;;;;2.97;1.20;;;;;;;;;;5031430;28;20151;-57
2023/11/19 10:27:18;;;;;;;2.17;1.00;;;;;;;;;;5029032;28;20072;-59
2023/11/19 10:29:47;;;;;;;3.20;1.05;;;;;;;;;;5031174;28;20450;-56
2023/11/19 10:32:13;;;;;;;3.28;1.40;;;;;;;;;;5030525;28;21887;-57
2023/11/19 10:34:39;;;;;;;2.05;1.00;;;;;;;;;;5032121;28;20057;-57
2023/11/19 10:37:05;;;;;;;2.42;1.15;;;;;;;;;;5030707;28;20844;-57
2023/11/19 10:39:51;;;;;;;1.73;1.00;;;;;;;;;;5033090;28;20033;-57
2023/11/19 10:42:16;;;;;;;2.90;0.95;;;;;;;;;;5013445;28;20036;-57
2023/11/19 10:44:41;;;;;;;2.08;1.10;;;;;;;;;;5032422;28;20412;-58
2023/11/19 10:47:07;;;;;;;2.73;1.10;;;;;;;;;;5033760;28;20459;-58
2023/11/19 10:49:35;;;;;;;2.92;0.95;;;;;;;;;;5030825;28;20364;-58
2023/11/19 10:52:00;;;;;;;1.48;0.82;;;;;;;;;;5030884;28;20502;-57
2023/11/19 10:54:25;;;;;;;2.33;0.93;;;;;;;;;;5033737;28;20110;-57
2023/11/19 10:56:54;;;;;;;1.80;1.00;;;;;;;;;;5011379;28;20587;-57
2023/11/19 10:59:19;;;;;;;1.90;0.90;;;;;;;;;;5014188;28;20389;-58
2023/11/19 11:01:44;;;;;;;2.03;0.70;;;;;;;;;;5031400;28;20116;-58
2023/11/19 11:04:13;;;;;;;2.72;0.90;;;;;;;;;;5032624;28;20836;-56
2023/11/19 11:06:39;;;;;;;2.42;1.02;;;;;;;;;;5029838;28;20101;-56
2023/11/19 11:09:04;;;;;;;2.20;0.95;;;;;;;;;;5028812;28;20041;-56
2023/11/19 11:11:30;;;;;;;2.88;1.10;;;;;;;;;;5010012;28;20063;-56
2023/11/19 11:13:55;;;;;;;2.35;0.88;;;;;;;;;;5028988;28;20135;-57
2023/11/19 11:16:21;;;;;;;2.92;1.27;;;;;;;;;;5013132;28;20072;-57
2023/11/19 11:18:46;;;;;;;1.85;1.02;;;;;;;;;;5010367;28;20029;-56
2023/11/19 11:21:15;;;;;;;1.98;1.17;;;;;;;;;;5030148;28;20036;-57
2023/11/19 11:23:59;;;;;;;2.00;1.00;;;;;;;;;;5028745;28;20603;-58
2023/11/19 11:26:43;;;;;;;2.45;1.10;;;;;;;;;;5026936;28;20053;-56
2023/11/19 11:29:09;;;;;;;2.03;0.90;;;;;;;;;;5029216;28;20515;-58
2023/11/19 11:31:41;;;;;;;3.15;1.15;;;;;;;;;;5011523;28;20823;-58
2023/11/19 11:34:32;;;;;;;1.90;1.00;;;;;;;;;;5029358;28;20683;-58
2023/11/19 11:37:03;;;;;;;1.80;0.90;;;;;;;;;;5006656;28;20084;-57
2023/11/19 11:39:28;;;;;;;2.03;0.90;;;;;;;;;;5029439;28;20026;-56
2023/11/19 11:42:17;;;;;;;2.63;1.00;;;;;;;;;;5026602;28;20020;-57
2023/11/19 11:45:02;;;;;;;3.90;1.25;;;;;;;;;;5023595;28;20021;-56
2023/11/19 11:47:49;;;;;;;2.03;1.00;;;;;;;;;;5029019;28;20084;-56
2023/11/19 11:50:16;;;;;;;3.83;0.90;;;;;;;;;;4997658;28;20534;-56
2023/11/19 11:52:57;;;;;;;1.63;0.90;;;;;;;;;;5044937;28;20098;-56
2023/11/19 11:55:26;;;;;;;2.20;0.98;;;;;;;;;;5030690;28;20049;-57
2023/11/19 11:57:52;;;;;;;2.25;0.90;;;;;;;;;;5028196;28;20155;-57
2023/11/19 12:00:28;;;;;;;1.55;0.90;;;;;;;;;;5025808;28;20037;-59
2023/11/19 12:02:57;;;;;;;2.38;0.90;;;;;;;;;;5009037;28;20835;-59
2023/11/19 12:05:23;;;;;;;1.50;0.90;;;;;;;;;;5017327;28;20138;-58
2023/11/19 12:07:55;;;;;;;2.05;0.85;;;;;;;;;;5029541;28;20530;-58
2023/11/19 12:10:21;;;;;;;2.15;0.90;;;;;;;;;;5030516;28;20038;-59
2023/11/19 12:12:47;;;;;;;2.05;1.10;;;;;;;;;;5037148;28;20033;-57
2023/11/19 12:15:14;;;;;;;1.92;0.80;;;;;;;;;;5038667;28;20051;-57
2023/11/19 12:17:49;;;;;;;1.65;0.93;;;;;;;;;;5043984;28;20037;-57
2023/11/19 12:20:14;;;;;;;2.30;1.10;;;;;;;;;;5033939;28;20052;-57
2023/11/19 12:22:41;;;;;;;2.03;1.10;;;;;;;;;;5037846;28;20037;-58
2023/11/19 12:25:07;;;;;;;1.65;0.80;;;;;;;;;;5033536;28;20115;-57
2023/11/19 12:27:36;;;;;;;2.13;1.05;;;;;;;;;;5032937;28;20041;-57
2023/11/19 12:30:05;;;;;;;2.10;0.90;;;;;;;;;;5033687;28;20026;-57
2023/11/19 12:32:45;;;;;;;2.30;1.00;;;;;;;;;;5027272;28;20032;-58
2023/11/19 12:35:13;;;;;;;1.75;0.90;;;;;;;;;;5028382;28;20053;-56
2023/11/19 12:37:44;;;;;;;3.03;0.70;;;;;;;;;;5033826;28;20518;-57
2023/11/19 12:40:12;;;;;;;2.55;0.90;;;;;;;;;;5015679;28;20034;-58
2023/11/19 12:42:45;;;;;;;3.75;0.90;;;;;;;;;;5028928;28;20037;-57
2023/11/19 12:45:10;;;;;;;5.50;1.02;;;;;;;;;;5028549;28;20037;-58
2023/11/19 12:47:37;;;;;;;5.43;0.80;;;;;;;;;;5030501;28;20617;-57
2023/11/19 12:50:03;;;;;;;5.07;1.15;;;;;;;;;;5013663;28;20044;-57
2023/11/19 12:52:29;;;;;;;2.10;0.90;;;;;;;;;;5031522;28;20045;-57
2023/11/19 12:54:55;;;;;;;1.90;0.77;;;;;;;;;;5032977;28;20037;-57
2023/11/19 12:57:21;;;;;;;2.78;1.17;;;;;;;;;;5031618;28;20128;-59
2023/11/19 12:59:56;;;;;;;3.63;0.80;;;;;;;;;;5031880;28;20507;-58
2023/11/19 13:02:23;;;;;;;2.28;0.80;;;;;;;;;;5033112;28;20040;-57
2023/11/19 13:04:49;;;;;;;1.70;0.85;;;;;;;;;;5031622;28;20045;-58
2023/11/19 13:07:20;;;;;;;3.85;0.80;;;;;;;;;;5032131;28;20099;-57
2023/11/19 13:09:46;;;;;;;2.22;0.80;;;;;;;;;;5032781;28;20095;-57
2023/11/19 13:12:13;;;;;;;2.17;0.95;;;;;;;;;;5031670;28;20485;-57
2023/11/19 13:14:38;;;;;;;1.25;0.80;;;;;;;;;;5033369;28;20040;-57
2023/11/19 13:17:05;;;;;;;1.42;0.80;;;;;;;;;;5031343;28;20075;-58
2023/11/19 13:19:30;;;;;;;2.00;0.70;;;;;;;;;;5031872;28;20691;-57
2023/11/19 13:21:56;;;;;;;1.90;0.90;;;;;;;;;;5032484;28;20778;-58
2023/11/19 13:24:22;;;;;;;1.52;0.80;;;;;;;;;;5031173;28;20453;-58
2023/11/19 13:26:47;;;;;;;1.55;0.95;;;;;;;;;;5030476;28;20064;-59
2023/11/19 13:29:13;;;;;;;1.33;0.82;;;;;;;;;;5032530;28;20108;-58
2023/11/19 13:31:39;;;;;;;2.13;0.95;;;;;;;;;;5032749;28;20103;-57
2023/11/19 13:34:07;;;;;;;1.80;0.80;;;;;;;;;;5031525;28;20029;-57
2023/11/19 13:36:33;;;;;;;2.15;1.00;;;;;;;;;;5031075;28;20152;-59
2023/11/19 13:38:59;;;;;;;3.15;1.00;;;;;;;;;;5031973;28;20183;-57
2023/11/19 13:41:25;;;;;;;1.65;0.90;;;;;;;;;;5032104;28;20053;-57
2023/11/19 13:43:51;;;;;;;1.23;0.85;;;;;;;;;;5032814;28;20135;-57
2023/11/19 13:46:17;;;;;;;1.70;0.80;;;;;;;;;;5027256;28;20110;-57
2023/11/19 13:48:42;;;;;;;1.40;0.80;;;;;;;;;;5031853;28;20513;-57
2023/11/19 13:51:09;;;;;;;1.58;0.93;;;;;;;;;;5029438;28;20040;-57
2023/11/19 13:53:36;;;;;;;1.42;0.80;;;;;;;;;;5033487;28;20029;-59
2023/11/19 13:56:01;;;;;;;1.10;0.60;;;;;;;;;;5032445;28;20518;-58
2023/11/19 13:58:27;;;;;;;1.58;0.95;;;;;;;;;;5030667;28;20168;-58
2023/11/19 14:00:52;;;;;;;2.80;1.20;;;;;;;;;;5033502;28;20096;-58
2023/11/19 14:03:18;;;;;;;1.17;0.80;;;;;;;;;;5034575;28;20037;-57
2023/11/19 14:05:44;;;;;;;1.55;0.93;;;;;;;;;;5030388;28;20033;-58
2023/11/19 14:08:13;;;;;;;1.23;0.70;;;;;;;;;;5030845;28;20051;-58
2023/11/19 14:10:40;;;;;;;1.48;0.85;;;;;;;;;;5029045;28;20037;-57
2023/11/19 14:13:08;;;;;;;1.40;0.85;;;;;;;;;;5031445;28;20395;-57
2023/11/19 14:15:35;;;;;;;1.80;0.77;;;;;;;;;;5031492;28;20053;-57
2023/11/19 14:18:01;;;;;;;1.48;0.80;;;;;;;;;;5028857;28;20111;-57
2023/11/19 14:20:27;;;;;;;1.35;0.75;;;;;;;;;;5032157;28;20140;-58
2023/11/19 14:22:54;;;;;;;1.42;0.88;;;;;;;;;;5032372;28;20041;-59
2023/11/19 14:25:21;;;;;;;1.98;1.00;;;;;;;;;;5016975;28;20582;-58
2023/11/19 14:27:46;;;;;;;1.58;1.00;;;;;;;;;;5031562;28;20408;-57
2023/11/19 14:30:13;;;;;;;1.35;0.80;;;;;;;;;;5029592;28;20045;-57
2023/11/19 14:32:39;;;;;;;9.35;1.40;;;;;;;;;;5027123;28;20312;-57
2023/11/19 14:35:05;;;;;;;10.63;1.58;;;;;;;;;;5024616;28;20151;-58
2023/11/19 14:37:31;;;;;;;4.22;1.02;;;;;;;;;;5029294;28;20033;-58
2023/11/19 14:40:04;;;;;;;4.88;1.05;;;;;;;;;;5029671;28;20033;-58
2023/11/19 14:42:30;;;;;;;5.13;1.20;;;;;;;;;;5025023;28;20041;-58
2023/11/19 14:44:55;;;;;;;2.83;0.80;;;;;;;;;;5028081;28;20030;-57